Time;durP1;ratioP1;P1;durP2;ratioP2;P2;SDS_P1;SDS_P2;PMS_P1;PMS_P2;Temp;Humidity;BMP_temperature;BMP_pressure;BME280_temperature;BME280_humidity;BME280_pressure;Samples;Min_cycle;Max_cycle;Signal;HPM_P1;HPM_P2
2023/08/24 00:02:28;;;;;;;5.88;5.20;;;21.40;99.90;;;;;;5087665;28;20047;-63
2023/08/24 00:05:02;;;;;;;6.07;5.45;;;21.40;99.90;;;;;;5085967;28;20049;-64
2023/08/24 00:07:36;;;;;;;6.38;5.07;;;21.40;99.90;;;;;;5116912;28;20038;-63
2023/08/24 00:10:08;;;;;;;7.35;5.68;;;21.40;99.90;;;;;;5116703;28;20058;-65
2023/08/24 00:12:42;;;;;;;6.50;4.78;;;21.30;99.90;;;;;;5096216;28;20047;-62
2023/08/24 00:15:14;;;;;;;7.90;5.97;;;21.30;99.90;;;;;;5083770;28;20058;-61
2023/08/24 00:17:54;;;;;;;9.80;5.93;;;21.30;99.90;;;;;;5084865;29;20039;-65
2023/08/24 00:20:27;;;;;;;6.78;5.13;;;21.30;99.90;;;;;;5085548;29;20039;-63
2023/08/24 00:23:01;;;;;;;9.32;6.00;;;21.30;99.90;;;;;;5081686;28;20544;-66
2023/08/24 00:25:44;;;;;;;9.02;5.40;;;21.30;99.90;;;;;;5116768;28;20131;-62
2023/08/24 00:28:18;;;;;;;6.82;5.07;;;21.30;99.90;;;;;;5145685;28;20045;-62
2023/08/24 00:30:50;;;;;;;8.02;5.88;;;21.30;99.90;;;;;;5103945;28;20611;-65
2023/08/24 00:33:24;;;;;;;6.05;5.30;;;21.30;99.90;;;;;;5161021;28;20042;-65
2023/08/24 00:36:03;;;;;;;7.72;5.93;;;21.30;99.90;;;;;;5102486;29;20057;-65
2023/08/24 00:38:35;;;;;;;8.50;5.75;;;21.30;99.90;;;;;;5084012;28;20043;-66
2023/08/24 00:41:06;;;;;;;7.63;5.47;;;21.30;99.90;;;;;;5083825;28;20447;-66
2023/08/24 00:43:41;;;;;;;6.93;5.85;;;21.30;99.90;;;;;;5182919;28;20045;-63
2023/08/24 00:46:13;;;;;;;10.93;6.38;;;21.20;99.90;;;;;;5163968;28;20051;-64
2023/08/24 00:48:47;;;;;;;6.80;6.10;;;21.20;99.90;;;;;;5165243;28;20051;-63
2023/08/24 00:51:21;;;;;;;7.40;5.93;;;21.00;99.90;;;;;;5102662;29;20566;-63
2023/08/24 00:53:53;;;;;;;8.27;6.00;;;20.90;99.90;;;;;;5162599;28;20039;-62
2023/08/24 00:56:26;;;;;;;6.93;6.25;;;20.90;99.90;;;;;;5080585;28;20595;-65
2023/08/24 00:58:58;;;;;;;7.22;5.18;;;20.90;99.90;;;;;;5106851;28;20038;-63
2023/08/24 01:01:32;;;;;;;7.90;5.35;;;20.90;99.90;;;;;;5170731;23;20045;-87
2023/08/24 01:04:05;;;;;;;6.32;5.70;;;20.90;99.90;;;;;;5197291;28;20042;-86
2023/08/24 01:06:37;;;;;;;9.48;6.05;;;20.80;99.90;;;;;;5073677;28;20038;-87
2023/08/24 01:09:11;;;;;;;5.65;5.00;;;20.80;99.90;;;;;;5202779;28;20046;-86
2023/08/24 01:12:08;;;;;;;8.30;5.85;;;20.70;99.90;;;;;;5089692;28;20047;-86
2023/08/24 01:15:04;;;;;;;9.02;5.97;;;20.60;99.90;;;;;;5178556;28;20043;-87
2023/08/24 01:17:38;;;;;;;7.20;6.00;;;20.70;99.90;;;;;;5203001;28;20037;-85
2023/08/24 01:20:11;;;;;;;8.38;6.45;;;20.70;99.90;;;;;;5193187;28;20039;-86
2023/08/24 01:23:04;;;;;;;7.25;6.25;;;20.60;99.90;;;;;;5178386;28;20035;-86
2023/08/24 01:25:54;;;;;;;7.72;6.32;;;20.50;99.90;;;;;;5203746;28;20044;-86
2023/08/24 01:28:37;;;;;;;8.60;6.78;;;20.50;99.90;;;;;;5203061;28;20077;-86
2023/08/24 01:31:10;;;;;;;7.30;6.30;;;20.50;99.90;;;;;;5209575;28;20109;-86
2023/08/24 01:33:42;;;;;;;8.65;5.97;;;20.50;99.90;;;;;;5204479;28;20331;-87
2023/08/24 01:36:19;;;;;;;6.97;6.07;;;20.40;99.90;;;;;;5150689;28;20045;-87
2023/08/24 01:39:33;;;;;;;8.20;6.68;;;20.40;99.90;;;;;;5077005;28;20340;-86
2023/08/24 01:42:15;;;;;;;7.53;6.72;;;20.40;99.90;;;;;;5121007;28;20037;-86
2023/08/24 01:44:58;;;;;;;8.55;6.97;;;20.30;99.90;;;;;;5076448;28;20218;-87
2023/08/24 01:47:32;;;;;;;7.60;6.40;;;20.30;99.90;;;;;;5091422;28;20343;-86
2023/08/24 01:53:17;;;;;;;7.00;5.90;;;20.30;99.90;;;;;;5193154;28;20039;-86
2023/08/24 01:55:49;;;;;;;7.43;6.13;;;20.40;99.90;;;;;;5131736;28;20035;-85
2023/08/24 01:58:24;;;;;;;7.93;6.70;;;20.40;99.90;;;;;;5100061;28;20040;-85
2023/08/24 02:00:55;;;;;;;7.38;6.50;;;20.40;99.90;;;;;;5141020;28;20045;-88
2023/08/24 02:03:33;;;;;;;9.25;6.78;;;20.30;99.90;;;;;;5129116;28;20326;-85
2023/08/24 02:09:56;;;;;;;;;;;20.30;99.90;;;;;;5116544;29;20054;-87
2023/08/24 02:12:28;;;;;;;7.93;6.65;;;20.20;99.90;;;;;;5122270;28;19906;-86
2023/08/24 02:15:03;;;;;;;10.10;6.35;;;20.20;99.90;;;;;;5136954;28;20039;-86
2023/08/24 02:17:35;;;;;;;7.97;6.70;;;20.10;99.90;;;;;;5191683;28;20037;-87
2023/08/24 02:20:11;;;;;;;7.68;6.65;;;20.10;99.90;;;;;;5194271;28;20223;-87
2023/08/24 02:22:43;;;;;;;11.73;7.38;;;20.10;99.90;;;;;;5132566;28;20035;-86
2023/08/24 02:25:19;;;;;;;7.68;6.88;;;20.00;99.90;;;;;;5174455;28;20050;-87
2023/08/24 02:27:51;;;;;;;7.63;6.75;;;20.00;99.90;;;;;;5166354;28;20040;-87
2023/08/24 02:30:23;;;;;;;7.38;6.28;;;20.00;99.90;;;;;;5133394;29;20035;-86
2023/08/24 02:32:58;;;;;;;8.15;6.68;;;20.00;99.90;;;;;;5102808;28;20043;-86
2023/08/24 02:35:31;;;;;;;8.90;7.00;;;19.90;99.90;;;;;;5156507;28;20345;-87
2023/08/24 02:38:07;;;;;;;20.20;8.13;;;20.00;99.90;;;;;;5215109;28;20048;-87
2023/08/24 02:40:44;;;;;;;8.77;6.80;;;19.90;99.90;;;;;;5179739;28;20044;-87
2023/08/24 02:43:18;;;;;;;8.48;6.40;;;19.90;99.90;;;;;;5190848;28;20202;-85
2023/08/24 02:49:39;;;;;;;10.77;6.45;;;19.80;99.90;;;;;;5193660;28;20031;-86
2023/08/24 02:52:11;;;;;;;;;;;19.80;99.90;;;;;;5194678;28;20038;-87
2023/08/24 02:55:02;;;;;;;6.55;5.78;;;19.80;99.90;;;;;;5189171;28;19910;-87
2023/08/24 02:57:37;;;;;;;7.72;6.03;;;19.80;99.90;;;;;;5206679;28;20255;-87
2023/08/24 03:00:13;;;;;;;7.15;5.75;;;19.80;99.90;;;;;;5195241;28;20049;-86
2023/08/24 03:02:48;;;;;;;7.88;7.07;;;19.70;99.90;;;;;;5199106;28;20048;-86
2023/08/24 03:05:25;;;;;;;6.55;5.85;;;19.70;99.90;;;;;;5223819;28;20047;-87
2023/08/24 03:07:57;;;;;;;9.45;6.88;;;19.60;99.90;;;;;;5202458;28;20033;-87
2023/08/24 03:10:36;;;;;;;9.60;7.25;;;19.60;99.90;;;;;;5104188;28;20319;-86
2023/08/24 03:13:11;;;;;;;7.53;6.75;;;19.60;99.90;;;;;;5196822;28;20048;-87
2023/08/24 03:15:47;;;;;;;8.35;7.03;;;19.70;99.90;;;;;;5184007;28;20045;-87
2023/08/24 03:18:25;;;;;;;9.77;7.05;;;19.70;99.90;;;;;;5172628;28;20035;-86
2023/08/24 03:21:02;;;;;;;7.10;6.40;;;19.60;99.90;;;;;;5194441;28;20035;-86
2023/08/24 03:23:36;;;;;;;9.63;6.53;;;19.60;99.90;;;;;;5116825;29;20309;-87
2023/08/24 03:26:13;;;;;;;8.60;7.28;;;19.60;99.90;;;;;;5197854;28;20043;-86
2023/08/24 03:28:48;;;;;;;8.85;7.45;;;19.50;99.90;;;;;;5204972;28;20041;-86
2023/08/24 03:31:22;;;;;;;8.13;6.82;;;19.50;99.90;;;;;;5165096;28;20037;-86
2023/08/24 03:33:56;;;;;;;8.60;6.78;;;19.50;99.90;;;;;;5201536;28;20035;-87
2023/08/24 03:40:16;;;;;;;7.90;6.70;;;19.50;99.90;;;;;;5124804;29;20039;-85
2023/08/24 03:42:48;;;;;;;13.35;7.30;;;19.40;99.90;;;;;;5117780;28;20035;-86
2023/08/24 03:45:26;;;;;;;8.60;6.95;;;19.40;99.90;;;;;;5164235;28;20290;-85
2023/08/24 03:47:58;;;;;;;7.57;6.82;;;19.40;99.90;;;;;;5188521;28;20341;-86
2023/08/24 03:50:30;;;;;;;9.20;6.68;;;19.40;99.90;;;;;;5185616;28;20041;-86
2023/08/24 03:53:11;;;;;;;9.55;7.10;;;19.40;99.90;;;;;;5197748;28;20033;-86
2023/08/24 03:59:46;;;;;;;8.02;6.93;;;19.30;99.90;;;;;;5116910;29;20036;-86
2023/08/24 04:02:20;;;;;;;10.02;7.53;;;19.30;99.90;;;;;;5147252;28;20045;-87
2023/08/24 04:04:52;;;;;;;8.50;6.60;;;19.40;99.90;;;;;;5075882;28;20036;-86
2023/08/24 04:07:27;;;;;;;7.75;6.47;;;19.30;99.90;;;;;;5165962;28;20173;-87
2023/08/24 04:10:01;;;;;;;8.57;6.78;;;19.40;99.90;;;;;;5199505;28;20323;-86
2023/08/24 04:12:35;;;;;;;7.63;6.68;;;19.40;99.90;;;;;;5173652;28;20033;-86
2023/08/24 04:15:10;;;;;;;8.13;6.63;;;19.30;99.90;;;;;;5177520;28;20033;-86
2023/08/24 04:17:42;;;;;;;8.50;6.40;;;19.40;99.90;;;;;;5182741;28;20033;-86
2023/08/24 04:20:18;;;;;;;7.95;7.00;;;19.40;99.90;;;;;;5191002;28;20035;-86
2023/08/24 04:22:52;;;;;;;8.25;7.30;;;19.50;99.90;;;;;;5215782;28;20043;-86
2023/08/24 04:25:24;;;;;;;;;;;19.50;99.90;;;;;;5171728;28;20039;-87
2023/08/24 04:27:57;;;;;;;8.00;7.05;;;19.60;99.90;;;;;;5218681;28;19906;-86
2023/08/24 04:30:30;;;;;;;7.13;6.43;;;19.60;99.90;;;;;;5099323;28;20035;-86
2023/08/24 04:33:07;;;;;;;8.57;7.35;;;19.50;99.90;;;;;;5120551;28;20035;-86
2023/08/24 04:39:32;;;;;;;12.10;8.15;;;19.50;99.90;;;;;;5118655;28;20035;-86
2023/08/24 04:42:06;;;;;;;9.93;7.93;;;19.50;99.90;;;;;;5123683;28;20042;-87
2023/08/24 04:44:40;;;;;;;9.02;7.93;;;19.60;99.90;;;;;;5190539;28;20049;-86
2023/08/24 04:47:14;;;;;;;9.45;8.32;;;19.60;99.90;;;;;;5191227;28;20038;-86
2023/08/24 04:49:49;;;;;;;11.60;7.60;;;19.70;99.90;;;;;;5171373;28;20121;-86
2023/08/24 04:52:22;;;;;;;9.02;8.13;;;19.70;99.90;;;;;;5145261;28;20067;-87
2023/08/24 04:54:55;;;;;;;8.50;7.07;;;19.80;99.90;;;;;;5156385;28;20037;-86
2023/08/24 04:57:32;;;;;;;8.73;7.93;;;20.10;99.90;;;;;;5097739;29;20039;-86
2023/08/24 05:00:07;;;;;;;8.52;6.50;;;20.30;99.90;;;;;;5109801;28;20058;-86
2023/08/24 05:02:41;;;;;;;;;;;20.50;99.90;;;;;;5116575;29;20043;-87
2023/08/24 05:05:13;;;;;;;6.88;6.13;;;20.70;99.90;;;;;;5203886;28;19922;-85
2023/08/24 05:07:49;;;;;;;8.18;6.90;;;21.10;99.90;;;;;;5183353;28;20040;-87
2023/08/24 05:10:25;;;;;;;9.50;6.30;;;21.40;99.90;;;;;;5103998;28;20040;-86
2023/08/24 05:13:09;;;;;;;8.32;6.32;;;21.70;99.90;;;;;;5089008;28;20040;-87
2023/08/24 05:19:36;;;;;;;6.22;5.55;;;22.30;99.90;;;;;;5226109;28;20033;-87
2023/08/24 05:22:14;;;;;;;7.15;5.68;;;22.70;99.90;;;;;;5213402;28;20029;-89
2023/08/24 05:24:47;;;;;;;7.07;5.30;;;22.70;72.60;;;;;;5215326;28;20036;-87
2023/08/24 05:27:19;;;;;;;7.30;5.70;;;22.60;99.90;;;;;;5189606;28;20061;-86
2023/08/24 05:30:10;;;;;;;6.00;5.40;;;22.60;99.90;;;;;;5126416;29;20150;-87
2023/08/24 05:32:45;;;;;;;6.78;5.85;;;22.60;99.90;;;;;;5181539;28;20043;-87
2023/08/24 05:35:22;;;;;;;8.02;5.38;;;22.60;95.90;;;;;;5190576;28;20039;-85
2023/08/24 05:37:57;;;;;;;8.18;5.25;;;22.80;22.20;;;;;;5101628;28;20034;-87
2023/08/24 05:40:39;;;;;;;7.97;5.43;;;23.10;1.00;;;;;;5120214;28;20043;-87
2023/08/24 05:43:15;;;;;;;8.50;5.20;;;23.50;1.00;;;;;;5121546;28;20035;-87
2023/08/24 05:45:52;;;;;;;8.02;4.78;;;23.90;1.00;;;;;;5201327;28;20034;-88
2023/08/24 05:48:29;;;;;;;6.38;4.88;;;23.90;1.00;;;;;;5205795;28;20037;-87
2023/08/24 05:51:02;;;;;;;6.88;5.13;;;24.00;1.00;;;;;;5216583;28;20037;-86
2023/08/24 05:53:40;;;;;;;7.18;5.07;;;24.20;1.00;;;;;;5176611;28;20037;-87
2023/08/24 05:56:14;;;;;;;6.85;4.78;;;24.60;1.00;;;;;;5181444;28;20045;-86
2023/08/24 05:58:48;;;;;;;7.78;5.30;;;24.90;99.90;;;;;;5188515;28;20049;-87
2023/08/24 06:01:23;;;;;;;9.13;5.20;;;25.00;99.90;;;;;;5213266;28;20041;-86
2023/08/24 06:03:56;;;;;;;6.93;5.45;;;25.50;99.90;;;;;;5225789;28;20037;-87
2023/08/24 06:06:33;;;;;;;5.63;4.68;;;25.90;99.90;;;;;;5211142;23;20070;-69
2023/08/24 06:09:14;;;;;;;7.45;4.75;;;26.20;1.00;;;;;;5188856;28;20044;-69
2023/08/24 06:11:49;;;;;;;5.45;4.30;;;26.50;1.00;;;;;;5172835;28;20569;-70
2023/08/24 06:14:24;;;;;;;4.45;4.05;;;26.80;1.00;;;;;;5105180;28;20038;-70
2023/08/24 06:16:56;;;;;;;6.15;4.97;;;26.90;1.00;;;;;;5139104;28;20053;-69
2023/08/24 06:19:27;;;;;;;6.60;4.70;;;26.80;99.90;;;;;;5166027;28;20063;-70
2023/08/24 06:21:59;;;;;;;6.18;4.47;;;26.60;99.90;;;;;;5186758;28;20049;-70
2023/08/24 06:24:34;;;;;;;6.25;5.03;;;26.50;1.00;;;;;;5185225;28;20038;-68
2023/08/24 06:27:07;;;;;;;5.78;4.53;;;26.50;1.00;;;;;;5134638;28;20250;-70
2023/08/24 06:29:48;;;;;;;7.28;4.50;;;27.00;1.00;;;;;;5112036;28;20065;-70
2023/08/24 06:32:20;;;;;;;4.97;4.43;;;27.10;99.90;;;;;;5162624;28;20415;-70
2023/08/24 06:34:51;;;;;;;4.68;4.22;;;27.40;99.90;;;;;;5215538;28;20745;-70
2023/08/24 06:37:27;;;;;;;4.80;4.28;;;27.70;94.00;;;;;;5181640;28;20051;-69
2023/08/24 06:40:02;;;;;;;5.47;4.90;;;27.90;1.00;;;;;;5209852;28;20041;-69
2023/08/24 06:42:36;;;;;;;5.38;4.20;;;28.30;1.00;;;;;;5165844;28;20037;-69
2023/08/24 06:45:13;;;;;;;5.32;4.30;;;28.60;1.00;;;;;;5124687;28;20259;-70
2023/08/24 06:47:52;;;;;;;6.65;4.68;;;28.60;1.00;;;;;;5195753;28;20049;-69
2023/08/24 06:50:24;;;;;;;4.78;4.25;;;28.70;99.90;;;;;;5165905;28;20075;-70
2023/08/24 06:52:55;;;;;;;5.10;4.43;;;28.80;99.90;;;;;;5214153;28;20645;-68
2023/08/24 06:55:27;;;;;;;5.78;4.30;;;29.00;1.00;;;;;;5183900;28;20470;-70
2023/08/24 06:58:05;;;;;;;4.78;4.30;;;28.90;1.00;;;;;;5195943;28;20037;-70
2023/08/24 07:00:39;;;;;;;11.93;8.60;;;28.80;1.00;;;;;;5165814;28;20343;-69
2023/08/24 07:03:11;;;;;;;6.65;5.75;;;28.90;1.00;;;;;;5158063;28;20040;-69
2023/08/24 07:05:44;;;;;;;6.28;4.70;;;29.00;1.00;;;;;;5204398;28;20575;-69
2023/08/24 07:08:16;;;;;;;6.57;5.28;;;28.50;1.00;;;;;;5207238;28;20043;-70
2023/08/24 07:10:47;;;;;;;6.97;4.35;;;28.70;1.00;;;;;;5186100;28;20045;-70
2023/08/24 07:13:22;;;;;;;4.60;4.07;;;29.10;1.00;;;;;;5141698;28;20047;-68
2023/08/24 07:15:55;;;;;;;5.97;4.60;;;29.30;1.00;;;;;;5166063;28;20076;-70
2023/08/24 07:18:26;;;;;;;5.25;4.68;;;29.60;1.00;;;;;;5159020;28;20048;-69
2023/08/24 07:20:58;;;;;;;6.10;5.38;;;29.60;99.90;;;;;;5154531;28;20043;-70
2023/08/24 07:23:30;;;;;;;7.68;5.28;;;29.60;99.90;;;;;;5183338;28;20045;-69
2023/08/24 07:26:01;;;;;;;5.55;4.55;;;29.70;99.90;;;;;;5211818;28;20486;-69
2023/08/24 07:28:35;;;;;;;7.47;5.25;;;29.80;99.90;;;;;;5183190;28;20037;-69
2023/08/24 07:31:15;;;;;;;5.07;4.57;;;29.90;78.10;;;;;;5189937;28;20037;-70
2023/08/24 07:33:46;;;;;;;8.02;5.63;;;30.10;1.00;;;;;;5196292;28;20036;-69
2023/08/24 07:36:20;;;;;;;6.10;4.82;;;29.50;1.00;;;;;;5201884;28;20449;-70
2023/08/24 07:38:52;;;;;;;7.88;4.47;;;29.80;1.00;;;;;;5200122;28;20045;-68
2023/08/24 07:41:26;;;;;;;6.70;5.68;;;29.90;1.00;;;;;;5192985;28;20071;-68
2023/08/24 07:44:02;;;;;;;5.78;4.95;;;30.10;1.00;;;;;;5217396;28;20016;-69
2023/08/24 07:46:36;;;;;;;4.88;4.30;;;30.50;1.00;;;;;;5183333;28;20052;-69
2023/08/24 07:49:08;;;;;;;8.70;4.70;;;30.80;1.00;;;;;;5193258;28;20048;-69
2023/08/24 07:51:40;;;;;;;13.98;9.07;;;31.20;1.00;;;;;;5110550;28;20473;-69
2023/08/24 07:54:11;;;;;;;8.93;5.22;;;31.40;1.00;;;;;;5204788;28;20027;-69
2023/08/24 07:56:46;;;;;;;5.32;4.40;;;31.50;1.00;;;;;;5196578;28;20374;-67
2023/08/24 07:59:19;;;;;;;5.85;4.65;;;31.60;99.90;;;;;;5217975;28;20050;-71
2023/08/24 08:01:51;;;;;;;5.40;4.45;;;31.50;99.90;;;;;;5194446;28;20029;-72
2023/08/24 08:04:26;;;;;;;7.47;5.28;;;31.40;97.80;;;;;;5175881;28;20042;-70
2023/08/24 08:06:58;;;;;;;12.15;8.20;;;31.50;1.00;;;;;;5203824;28;20282;-69
2023/08/24 08:09:32;;;;;;;7.90;5.22;;;31.70;1.00;;;;;;5182213;28;20112;-70
2023/08/24 08:12:08;;;;;;;7.63;5.07;;;31.00;1.00;;;;;;5198712;28;20052;-69
2023/08/24 08:14:44;;;;;;;6.35;4.95;;;31.00;1.00;;;;;;5216550;28;20037;-69
2023/08/24 08:17:15;;;;;;;6.30;4.90;;;31.40;72.80;;;;;;5172630;28;20047;-70
2023/08/24 08:19:47;;;;;;;7.05;4.90;;;31.70;1.00;;;;;;5179403;28;20344;-69
2023/08/24 08:22:18;;;;;;;5.30;4.75;;;31.30;1.00;;;;;;5183430;28;20027;-71
2023/08/24 08:24:50;;;;;;;6.03;4.57;;;31.00;1.00;;;;;;5189070;28;20171;-70
2023/08/24 08:27:22;;;;;;;6.65;4.88;;;30.90;1.00;;;;;;5157685;28;20053;-70
2023/08/24 08:29:54;;;;;;;6.07;5.10;;;31.20;1.00;;;;;;5210764;28;20041;-70
2023/08/24 08:32:27;;;;;;;5.47;4.80;;;31.50;1.00;;;;;;5177636;28;20044;-69
2023/08/24 08:35:00;;;;;;;5.55;4.50;;;31.80;1.00;;;;;;5213479;28;20284;-70
2023/08/24 08:37:32;;;;;;;5.97;4.77;;;31.90;1.00;;;;;;5185373;28;20032;-70
2023/08/24 08:40:10;;;;;;;5.38;4.57;;;32.20;1.00;;;;;;5210869;28;20017;-71
2023/08/24 08:42:48;;;;;;;7.35;5.10;;;32.50;1.00;;;;;;5176467;28;20044;-71
2023/08/24 08:45:28;;;;;;;6.78;5.00;;;32.70;1.00;;;;;;5182751;28;20046;-71
2023/08/24 08:48:03;;;;;;;4.70;4.25;;;32.90;1.00;;;;;;5179370;28;20316;-71
2023/08/24 08:50:37;;;;;;;5.53;4.43;;;33.20;1.00;;;;;;5124354;28;20058;-70
2023/08/24 08:53:11;;;;;;;7.82;5.00;;;33.10;1.00;;;;;;5190851;28;20377;-72
2023/08/24 08:55:44;;;;;;;;;;;32.90;1.00;;;;;;5198770;28;20440;-71
2023/08/24 08:58:22;;;;;;;5.45;4.32;;;33.10;1.00;;;;;;5180561;28;19917;-70
2023/08/24 09:00:53;;;;;;;6.82;4.85;;;33.10;1.00;;;;;;5193150;28;20029;-70
2023/08/24 09:03:28;;;;;;;4.80;4.30;;;32.90;1.00;;;;;;5181025;28;20052;-69
2023/08/24 09:06:00;;;;;;;7.30;5.03;;;33.30;99.90;;;;;;5198733;28;20045;-69
2023/08/24 09:08:35;;;;;;;6.22;4.95;;;33.80;99.90;;;;;;5165116;28;20079;-71
2023/08/24 09:11:13;;;;;;;5.80;4.90;;;34.20;99.90;;;;;;5181126;28;20041;-70
2023/08/24 09:13:55;;;;;;;10.65;6.18;;;34.50;99.90;;;;;;5192901;28;20750;-71
2023/08/24 09:16:33;;;;;;;8.35;5.35;;;34.50;99.90;;;;;;5153811;28;20061;-71
2023/08/24 09:19:08;;;;;;;4.85;4.15;;;34.30;99.90;;;;;;5123771;28;20284;-70
2023/08/24 09:21:46;;;;;;;4.93;4.25;;;34.30;1.00;;;;;;5180535;28;20171;-69
2023/08/24 09:24:17;;;;;;;4.03;3.42;;;34.40;1.00;;;;;;5173620;28;20341;-71
2023/08/24 09:26:49;;;;;;;5.30;4.43;;;34.20;1.00;;;;;;5140661;28;20304;-69
2023/08/24 09:29:23;;;;;;;7.22;4.63;;;34.20;1.00;;;;;;5195456;28;20047;-70
2023/08/24 09:31:56;;;;;;;5.80;4.55;;;34.00;38.30;;;;;;5211616;28;20043;-70
2023/08/24 09:34:30;;;;;;;6.95;4.03;;;33.50;1.00;;;;;;5104254;28;20292;-70
2023/08/24 09:37:05;;;;;;;11.32;5.28;;;34.20;1.00;;;;;;5203291;28;20299;-70
2023/08/24 09:39:36;;;;;;;7.13;4.72;;;34.40;1.00;;;;;;5124735;28;20246;-70
2023/08/24 09:42:15;;;;;;;5.82;4.32;;;34.60;92.70;;;;;;5189922;28;20192;-71
2023/08/24 09:44:47;;;;;;;8.77;4.47;;;34.80;1.00;;;;;;5177561;28;20037;-69
2023/08/24 09:47:18;;;;;;;5.00;4.50;;;35.10;1.00;;;;;;5195552;28;20117;-69
2023/08/24 09:49:53;;;;;;;7.43;4.60;;;35.10;1.00;;;;;;5134145;28;20034;-70
2023/08/24 09:52:33;;;;;;;5.25;4.30;;;34.70;1.00;;;;;;5179714;28;20225;-69
2023/08/24 09:55:08;;;;;;;5.80;4.65;;;34.00;1.00;;;;;;5187624;28;20344;-70
2023/08/24 09:57:40;;;;;;;5.72;4.78;;;33.80;1.00;;;;;;5206496;28;20037;-70
2023/08/24 10:00:14;;;;;;;8.65;4.60;;;34.70;1.00;;;;;;5201760;28;20035;-70
2023/08/24 10:02:55;;;;;;;4.57;3.92;;;35.30;1.00;;;;;;5176587;28;20044;-71
2023/08/24 10:05:28;;;;;;;6.13;4.90;;;35.80;1.00;;;;;;5109389;28;20061;-71
2023/08/24 10:08:02;;;;;;;6.40;4.32;;;35.10;1.00;;;;;;5067535;28;20047;-70
2023/08/24 10:10:36;;;;;;;5.78;4.70;;;34.40;1.00;;;;;;5162492;28;20051;-70
2023/08/24 10:13:19;;;;;;;5.65;3.97;;;35.20;1.00;;;;;;5216032;28;20067;-71
2023/08/24 10:15:50;;;;;;;4.82;4.38;;;36.20;80.50;;;;;;5109825;28;20043;-69
2023/08/24 10:18:23;;;;;;;6.03;4.05;;;36.50;92.30;;;;;;5160413;28;20040;-69
2023/08/24 10:20:58;;;;;;;6.73;4.03;;;36.70;1.00;;;;;;5194768;28;20068;-69
2023/08/24 10:23:34;;;;;;;5.35;4.20;;;36.90;99.90;;;;;;5178872;28;20040;-69
2023/08/24 10:26:07;;;;;;;6.10;4.40;;;37.90;1.00;;;;;;5110877;28;20047;-70
2023/08/24 10:28:42;;;;;;;5.85;4.30;;;37.70;1.00;;;;;;5182579;28;20041;-71
2023/08/24 10:31:14;;;;;;;5.35;4.18;;;38.60;1.00;;;;;;5211822;28;20396;-69
2023/08/24 10:33:49;;;;;;;9.45;5.15;;;38.80;1.00;;;;;;5221085;28;20041;-70
2023/08/24 10:36:26;;;;;;;5.78;4.40;;;38.90;1.00;;;;;;5213406;28;20067;-70
2023/08/24 10:39:06;;;;;;;6.20;3.95;;;39.60;1.00;;;;;;5219031;28;20041;-69
2023/08/24 10:41:52;;;;;;;6.55;4.10;;;39.80;99.90;;;;;;5199854;28;20029;-69
2023/08/24 10:44:41;;;;;;;6.47;4.28;;;39.20;1.00;;;;;;5125109;28;20047;-71
2023/08/24 10:47:15;;;;;;;7.07;4.32;;;38.90;99.90;;;;;;5109992;28;20042;-70
2023/08/24 10:50:00;;;;;;;5.25;4.53;;;38.00;1.00;;;;;;5207037;28;20336;-69
2023/08/24 10:52:41;;;;;;;4.40;4.00;;;38.60;99.90;;;;;;5227658;28;20041;-69
2023/08/24 10:55:35;;;;;;;7.70;4.80;;;39.80;99.90;;;;;;5198483;28;20049;-69
2023/08/24 10:58:17;;;;;;;4.90;4.25;;;40.90;99.90;;;;;;5200243;28;20361;-70
2023/08/24 11:00:49;;;;;;;4.97;4.50;;;40.60;99.90;;;;;;5187712;28;20043;-70
2023/08/24 11:03:35;;;;;;;5.78;4.18;;;42.20;1.00;;;;;;5183582;28;20041;-70
2023/08/24 11:06:28;;;;;;;7.18;4.03;;;43.00;1.00;;;;;;5216397;28;20048;-70
2023/08/24 11:09:14;;;;;;;5.43;3.80;;;42.60;1.00;;;;;;5209047;28;20047;-70
2023/08/24 11:12:07;;;;;;;4.80;4.32;;;42.60;99.90;;;;;;5126458;28;20251;-70
2023/08/24 11:14:58;;;;;;;5.05;4.38;;;42.20;99.90;;;;;;5213644;28;20043;-70
2023/08/24 11:17:36;;;;;;;5.47;4.25;;;41.50;99.90;;;;;;5196471;28;20033;-69
2023/08/24 11:20:08;;;;;;;4.32;3.90;;;42.00;99.90;;;;;;5221271;28;20041;-70
2023/08/24 11:22:44;;;;;;;6.07;4.25;;;41.90;99.90;;;;;;5119603;28;20043;-69
2023/08/24 11:25:15;;;;;;;7.18;4.55;;;40.90;99.90;;;;;;5214127;28;20047;-70
2023/08/24 11:27:51;;;;;;;6.10;4.30;;;41.00;99.90;;;;;;5193231;28;20048;-70
2023/08/24 11:30:25;;;;;;;7.43;5.07;;;41.90;99.90;;;;;;5179454;28;20660;-69
2023/08/24 11:33:02;;;;;;;5.80;4.05;;;42.40;99.90;;;;;;5196640;28;20050;-69
2023/08/24 11:35:37;;;;;;;5.43;4.93;;;42.80;99.90;;;;;;5101540;28;20038;-70
2023/08/24 11:38:11;;;;;;;4.55;4.13;;;42.30;99.90;;;;;;5181872;28;20281;-70
2023/08/24 11:40:45;;;;;;;4.72;4.10;;;42.00;99.90;;;;;;5179688;28;20040;-71
2023/08/24 11:43:27;;;;;;;6.38;4.45;;;43.10;99.90;;;;;;5227404;28;20062;-69
2023/08/24 11:45:59;;;;;;;4.40;4.00;;;44.60;99.90;;;;;;5197196;28;20040;-71
2023/08/24 11:48:37;;;;;;;4.78;4.28;;;45.40;1.00;;;;;;5126241;28;20099;-69
2023/08/24 11:51:13;;;;;;;6.03;4.40;;;45.40;99.90;;;;;;5219038;28;20049;-69
2023/08/24 11:53:47;;;;;;;5.05;4.63;;;45.60;1.00;;;;;;5194385;28;20045;-70
2023/08/24 11:56:18;;;;;;;4.88;4.35;;;45.70;1.00;;;;;;5186874;28;20419;-70
2023/08/24 11:58:52;;;;;;;5.20;4.70;;;45.80;99.90;;;;;;5128329;28;20152;-71
2023/08/24 12:01:27;;;;;;;6.55;4.57;;;43.50;99.90;;;;;;5153258;28;20039;-70
2023/08/24 12:04:01;;;;;;;5.30;4.53;;;42.50;99.90;;;;;;5195348;28;20257;-69
2023/08/24 12:06:32;;;;;;;5.45;4.22;;;42.00;99.90;;;;;;5182402;28;20396;-69
2023/08/24 12:09:15;;;;;;;6.20;4.43;;;42.60;99.90;;;;;;5198627;28;20045;-70
2023/08/24 12:11:46;;;;;;;6.18;3.83;;;42.70;99.90;;;;;;5175210;28;20048;-71
2023/08/24 12:14:22;;;;;;;5.03;4.05;;;42.80;99.90;;;;;;5179845;28;20244;-68
2023/08/24 12:16:54;;;;;;;7.20;4.47;;;42.80;99.90;;;;;;5188637;28;20297;-71
2023/08/24 12:19:31;;;;;;;6.40;4.70;;;43.10;1.00;;;;;;5183380;28;20041;-69
2023/08/24 12:22:09;;;;;;;6.03;4.13;;;43.10;99.90;;;;;;5213476;28;20142;-69
2023/08/24 12:24:48;;;;;;;4.45;4.05;;;43.70;99.90;;;;;;5172958;28;20448;-69
2023/08/24 12:27:21;;;;;;;7.43;4.70;;;45.10;1.00;;;;;;5215828;28;20529;-71
2023/08/24 12:29:54;;;;;;;5.60;4.10;;;45.80;99.90;;;;;;5190565;28;20257;-70
2023/08/24 12:32:41;;;;;;;5.55;4.50;;;46.50;99.90;;;;;;5132353;28;20397;-69
2023/08/24 12:35:17;;;;;;;10.10;4.63;;;46.70;99.90;;;;;;5216020;28;20058;-69
2023/08/24 12:37:49;;;;;;;4.78;4.38;;;45.80;99.90;;;;;;5199823;28;20055;-69
2023/08/24 12:40:22;;;;;;;5.20;4.55;;;44.50;99.90;;;;;;5203610;28;20360;-69
2023/08/24 12:42:59;;;;;;;4.90;4.20;;;44.20;52.50;;;;;;5216658;28;20146;-70
2023/08/24 12:45:34;;;;;;;4.85;3.75;;;44.50;99.90;;;;;;5181047;28;20137;-69
2023/08/24 12:48:08;;;;;;;4.60;4.20;;;44.50;99.90;;;;;;5196495;28;20052;-69
2023/08/24 12:50:42;;;;;;;5.50;4.07;;;43.80;5.00;;;;;;5181754;28;20510;-68
2023/08/24 12:53:16;;;;;;;6.22;4.82;;;44.00;99.90;;;;;;5189670;28;20043;-72
2023/08/24 12:55:48;;;;;;;4.50;3.90;;;43.40;99.90;;;;;;5177519;28;20067;-72
2023/08/24 12:58:19;;;;;;;4.47;4.07;;;44.40;99.90;;;;;;5148432;28;20034;-70
2023/08/24 13:00:51;;;;;;;4.30;3.90;;;44.90;1.00;;;;;;5194864;28;20041;-70
2023/08/24 13:03:23;;;;;;;4.40;4.00;;;44.40;1.00;;;;;;5178887;28;20033;-69
2023/08/24 13:06:00;;;;;;;4.40;3.72;;;44.80;1.00;;;;;;5200960;28;20049;-69
2023/08/24 13:08:34;;;;;;;4.68;4.00;;;45.00;20.00;;;;;;5173498;28;20040;-69
2023/08/24 13:11:12;;;;;;;4.47;4.07;;;44.50;99.90;;;;;;5208561;28;20043;-69
2023/08/24 13:13:49;;;;;;;6.15;3.50;;;45.30;1.00;;;;;;5178510;28;20286;-70
2023/08/24 13:16:23;;;;;;;4.18;3.78;;;45.80;99.90;;;;;;5175580;28;20239;-69
2023/08/24 13:18:55;;;;;;;4.80;4.35;;;46.10;1.00;;;;;;5183626;28;20039;-68
2023/08/24 13:21:31;;;;;;;4.45;3.90;;;45.40;99.90;;;;;;5178891;28;20051;-69
2023/08/24 13:24:03;;;;;;;5.20;4.18;;;45.00;1.00;;;;;;5197373;28;20217;-69
2023/08/24 13:26:35;;;;;;;5.35;3.95;;;45.60;1.00;;;;;;5176161;28;20272;-69
2023/08/24 13:29:06;;;;;;;5.68;3.65;;;45.50;99.90;;;;;;5208796;28;20407;-70
2023/08/24 13:31:42;;;;;;;4.72;4.22;;;44.80;99.90;;;;;;5184875;28;20056;-69
2023/08/24 13:34:19;;;;;;;5.50;4.55;;;42.90;99.90;;;;;;5188232;28;20554;-70
2023/08/24 13:36:51;;;;;;;6.85;3.97;;;40.20;87.30;;;;;;5181604;28;20063;-69
2023/08/24 13:39:25;;;;;;;4.45;4.05;;;39.40;1.00;;;;;;5174998;28;20049;-69
2023/08/24 13:41:57;;;;;;;5.85;4.18;;;39.00;99.90;;;;;;5216301;28;20208;-69
2023/08/24 13:44:28;;;;;;;4.65;4.25;;;38.30;1.00;;;;;;5169602;28;20041;-68
2023/08/24 13:47:04;;;;;;;4.40;4.00;;;37.40;27.60;;;;;;5208676;28;20039;-69
2023/08/24 13:49:38;;;;;;;4.28;3.88;;;36.80;71.20;;;;;;5128146;28;20046;-68
2023/08/24 13:52:10;;;;;;;5.60;4.00;;;36.90;1.00;;;;;;5185499;28;20470;-68
2023/08/24 13:54:43;;;;;;;3.58;3.25;;;37.20;99.90;;;;;;5102331;28;20239;-68
2023/08/24 13:57:15;;;;;;;5.28;3.90;;;38.60;5.20;;;;;;5184774;28;20350;-68
2023/08/24 13:59:47;;;;;;;4.30;3.63;;;40.80;99.90;;;;;;5198095;28;20040;-68